sensor_id;sensor_type;location;lat;lon;timestamp;pressure;altitude;pressure_sealevel;temperature;humidity
39793;BME280;26080;42.264;24.536;2023-08-06T00:01:38;97899.22;;;24.76;100.00
39793;BME280;26080;42.264;24.536;2023-08-06T00:04:03;97899.41;;;24.68;100.00
39793;BME280;26080;42.264;24.536;2023-08-06T00:06:28;97897.22;;;24.85;100.00
39793;BME280;26080;42.264;24.536;2023-08-06T00:08:54;97896.75;;;24.75;100.00
39793;BME280;26080;42.264;24.536;2023-08-06T00:11:20;97896.75;;;24.75;100.00
39793;BME280;26080;42.264;24.536;2023-08-06T00:13:45;97904.00;;;24.81;100.00
39793;BME280;26080;42.264;24.536;2023-08-06T00:16:12;97900.69;;;24.79;100.00
39793;BME280;26080;42.264;24.536;2023-08-06T00:18:38;97897.63;;;24.82;100.00
39793;BME280;26080;42.264;24.536;2023-08-06T00:21:03;97914.47;;;24.76;100.00
39793;BME280;26080;42.264;24.536;2023-08-06T00:23:29;97887.22;;;24.66;100.00
39793;BME280;26080;42.264;24.536;2023-08-06T00:25:54;97898.78;;;24.73;100.00
39793;BME280;26080;42.264;24.536;2023-08-06T00:28:20;97908.09;;;24.77;100.00
39793;BME280;26080;42.264;24.536;2023-08-06T00:30:45;97924.97;;;24.77;100.00
39793;BME280;26080;42.264;24.536;2023-08-06T00:33:11;97925.88;;;24.57;100.00
39793;BME280;26080;42.264;24.536;2023-08-06T00:35:36;97929.91;;;24.46;100.00
39793;BME280;26080;42.264;24.536;2023-08-06T00:38:01;97930.72;;;24.46;100.00
39793;BME280;26080;42.264;24.536;2023-08-06T00:40:27;97933.59;;;24.45;100.00
39793;BME280;26080;42.264;24.536;2023-08-06T00:42:54;97921.38;;;24.64;100.00
39793;BME280;26080;42.264;24.536;2023-08-06T00:45:19;97903.72;;;24.69;100.00
39793;BME280;26080;42.264;24.536;2023-08-06T00:47:45;97886.47;;;24.78;100.00
39793;BME280;26080;42.264;24.536;2023-08-06T00:50:12;97858.78;;;24.65;100.00
39793;BME280;26080;42.264;24.536;2023-08-06T00:52:37;97863.59;;;24.76;100.00
39793;BME280;26080;42.264;24.536;2023-08-06T00:55:03;97854.72;;;24.69;100.00
39793;BME280;26080;42.264;24.536;2023-08-06T00:57:29;97847.22;;;24.58;100.00
39793;BME280;26080;42.264;24.536;2023-08-06T00:59:55;97859.16;;;24.55;100.00
39793;BME280;26080;42.264;24.536;2023-08-06T01:02:20;97832.66;;;24.32;100.00
39793;BME280;26080;42.264;24.536;2023-08-06T01:04:46;97834.31;;;24.33;100.00
39793;BME280;26080;42.264;24.536;2023-08-06T01:17:35;97878.22;;;24.24;100.00
39793;BME280;26080;42.264;24.536;2023-08-06T01:20:01;97853.53;;;24.22;100.00
39793;BME280;26080;42.264;24.536;2023-08-06T01:22:27;97837.88;;;24.19;100.00
39793;BME280;26080;42.264;24.536;2023-08-06T01:24:52;97870.53;;;24.36;100.00
39793;BME280;26080;42.264;24.536;2023-08-06T01:27:30;97848.16;;;24.43;100.00
39793;BME280;26080;42.264;24.536;2023-08-06T01:30:06;97845.31;;;24.51;100.00
39793;BME280;26080;42.264;24.536;2023-08-06T01:32:35;97842.84;;;24.50;100.00
39793;BME280;26080;42.264;24.536;2023-08-06T01:35:04;97840.75;;;24.45;100.00
39793;BME280;26080;42.264;24.536;2023-08-06T01:37:30;97837.03;;;24.40;100.00
39793;BME280;26080;42.264;24.536;2023-08-06T01:39:56;97830.81;;;24.33;100.00
39793;BME280;26080;42.264;24.536;2023-08-06T01:42:21;97789.63;;;24.06;100.00
39793;BME280;26080;42.264;24.536;2023-08-06T01:44:47;97816.50;;;24.26;100.00
39793;BME280;26080;42.264;24.536;2023-08-06T01:47:12;97833.78;;;24.23;100.00
39793;BME280;26080;42.264;24.536;2023-08-06T01:49:38;97832.28;;;24.14;100.00
39793;BME280;26080;42.264;24.536;2023-08-06T01:52:03;97842.81;;;24.22;100.00
39793;BME280;26080;42.264;24.536;2023-08-06T01:54:29;97829.06;;;24.25;100.00
39793;BME280;26080;42.264;24.536;2023-08-06T01:56:54;97820.78;;;24.20;100.00
39793;BME280;26080;42.264;24.536;2023-08-06T01:59:20;97832.94;;;24.22;100.00
39793;BME280;26080;42.264;24.536;2023-08-06T02:01:46;97834.97;;;24.14;100.00
39793;BME280;26080;42.264;24.536;2023-08-06T02:04:11;97816.66;;;23.89;100.00
39793;BME280;26080;42.264;24.536;2023-08-06T02:06:37;97822.41;;;23.86;100.00
39793;BME280;26080;42.264;24.536;2023-08-06T02:09:02;97858.28;;;23.99;100.00
39793;BME280;26080;42.264;24.536;2023-08-06T02:11:28;97866.56;;;24.04;100.00
39793;BME280;26080;42.264;24.536;2023-08-06T02:13:53;97820.66;;;24.00;100.00
39793;BME280;26080;42.264;24.536;2023-08-06T02:16:19;97813.19;;;23.96;100.00
39793;BME280;26080;42.264;24.536;2023-08-06T02:18:45;97831.34;;;24.00;100.00
39793;BME280;26080;42.264;24.536;2023-08-06T02:21:10;97834.66;;;24.02;100.00
39793;BME280;26080;42.264;24.536;2023-08-06T02:23:36;97835.22;;;23.98;100.00
39793;BME280;26080;42.264;24.536;2023-08-06T02:26:02;97870.91;;;24.11;100.00
39793;BME280;26080;42.264;24.536;2023-08-06T02:28:29;97831.47;;;23.92;100.00
39793;BME280;26080;42.264;24.536;2023-08-06T02:30:55;97825.84;;;24.08;100.00
39793;BME280;26080;42.264;24.536;2023-08-06T02:33:20;97849.91;;;24.30;100.00
39793;BME280;26080;42.264;24.536;2023-08-06T02:35:46;97831.88;;;24.17;100.00
39793;BME280;26080;42.264;24.536;2023-08-06T02:38:11;97829.34;;;24.30;100.00
39793;BME280;26080;42.264;24.536;2023-08-06T02:40:43;97809.34;;;24.26;100.00
39793;BME280;26080;42.264;24.536;2023-08-06T02:43:09;97816.06;;;24.22;100.00
39793;BME280;26080;42.264;24.536;2023-08-06T02:45:34;97824.63;;;24.11;100.00
39793;BME280;26080;42.264;24.536;2023-08-06T02:48:00;97822.53;;;24.06;100.00
39793;BME280;26080;42.264;24.536;2023-08-06T02:50:25;97829.50;;;24.01;100.00
39793;BME280;26080;42.264;24.536;2023-08-06T02:52:50;97828.28;;;24.03;100.00
39793;BME280;26080;42.264;24.536;2023-08-06T02:55:16;97819.44;;;24.03;100.00
39793;BME280;26080;42.264;24.536;2023-08-06T02:57:41;97823.75;;;24.04;100.00
39793;BME280;26080;42.264;24.536;2023-08-06T03:00:07;97813.47;;;24.01;100.00
39793;BME280;26080;42.264;24.536;2023-08-06T03:02:33;97819.97;;;23.91;100.00
39793;BME280;26080;42.264;24.536;2023-08-06T03:04:58;97824.88;;;23.88;100.00
39793;BME280;26080;42.264;24.536;2023-08-06T03:07:24;97810.56;;;23.74;100.00
39793;BME280;26080;42.264;24.536;2023-08-06T03:09:49;97837.91;;;23.76;100.00
39793;BME280;26080;42.264;24.536;2023-08-06T03:12:14;97839.19;;;23.80;100.00
39793;BME280;26080;42.264;24.536;2023-08-06T03:14:40;97842.50;;;23.82;100.00
39793;BME280;26080;42.264;24.536;2023-08-06T03:17:05;97820.75;;;23.85;100.00
39793;BME280;26080;42.264;24.536;2023-08-06T03:19:31;97818.22;;;23.84;100.00
39793;BME280;26080;42.264;24.536;2023-08-06T03:21:56;97819.06;;;23.84;100.00
39793;BME280;26080;42.264;24.536;2023-08-06T03:24:22;97799.09;;;23.80;100.00
39793;BME280;26080;42.264;24.536;2023-08-06T03:26:47;97778.06;;;23.56;100.00
39793;BME280;26080;42.264;24.536;2023-08-06T03:29:12;97795.22;;;23.61;100.00
39793;BME280;26080;42.264;24.536;2023-08-06T03:31:38;97811.78;;;23.72;100.00
39793;BME280;26080;42.264;24.536;2023-08-06T03:34:03;97816.66;;;23.68;100.00
39793;BME280;26080;42.264;24.536;2023-08-06T03:36:29;97819.22;;;23.76;100.00
39793;BME280;26080;42.264;24.536;2023-08-06T03:38:54;97804.31;;;23.67;100.00
39793;BME280;26080;42.264;24.536;2023-08-06T03:41:20;97825.38;;;23.77;100.00
39793;BME280;26080;42.264;24.536;2023-08-06T03:43:45;97837.13;;;23.82;100.00
39793;BME280;26080;42.264;24.536;2023-08-06T03:46:11;97830.59;;;23.85;100.00
39793;BME280;26080;42.264;24.536;2023-08-06T03:48:36;97835.81;;;23.93;100.00
39793;BME280;26080;42.264;24.536;2023-08-06T03:51:01;97831.47;;;23.92;100.00
39793;BME280;26080;42.264;24.536;2023-08-06T03:53:27;97837.75;;;24.06;100.00
39793;BME280;26080;42.264;24.536;2023-08-06T03:55:52;97806.59;;;23.91;100.00
39793;BME280;26080;42.264;24.536;2023-08-06T03:58:27;97828.53;;;24.08;100.00
39793;BME280;26080;42.264;24.536;2023-08-06T04:01:03;97846.81;;;24.05;100.00
39793;BME280;26080;42.264;24.536;2023-08-06T04:03:29;97841.22;;;24.00;100.00
39793;BME280;26080;42.264;24.536;2023-08-06T04:05:54;97848.59;;;23.98;100.00
39793;BME280;26080;42.264;24.536;2023-08-06T04:08:20;97832.88;;;23.88;100.00
39793;BME280;26080;42.264;24.536;2023-08-06T04:10:49;97853.69;;;24.14;100.00
39793;BME280;26080;42.264;24.536;2023-08-06T04:13:14;97846.03;;;24.11;100.00
39793;BME280;26080;42.264;24.536;2023-08-06T04:15:40;97864.13;;;24.30;100.00
39793;BME280;26080;42.264;24.536;2023-08-06T04:18:05;97866.59;;;24.32;100.00
39793;BME280;26080;42.264;24.536;2023-08-06T04:20:31;97863.78;;;24.40;100.00
39793;BME280;26080;42.264;24.536;2023-08-06T04:22:56;97872.47;;;24.48;100.00
39793;BME280;26080;42.264;24.536;2023-08-06T04:25:22;97867.13;;;24.48;100.00
39793;BME280;26080;42.264;24.536;2023-08-06T04:27:48;97861.25;;;24.60;100.00
39793;BME280;26080;42.264;24.536;2023-08-06T04:30:14;97840.44;;;24.55;100.00
39793;BME280;26080;42.264;24.536;2023-08-06T04:32:40;97867.28;;;24.75;100.00
39793;BME280;26080;42.264;24.536;2023-08-06T04:35:06;97867.44;;;24.67;100.00
39793;BME280;26080;42.264;24.536;2023-08-06T04:37:32;97874.09;;;24.77;100.00
39793;BME280;26080;42.264;24.536;2023-08-06T04:39:58;97875.31;;;24.75;100.00
39793;BME280;26080;42.264;24.536;2023-08-06T04:42:23;97874.03;;;24.64;100.00
39793;BME280;26080;42.264;24.536;2023-08-06T04:44:49;97880.09;;;24.51;100.00
39793;BME280;26080;42.264;24.536;2023-08-06T04:47:14;97868.28;;;24.39;100.00
39793;BME280;26080;42.264;24.536;2023-08-06T04:49:39;97856.25;;;24.29;100.00
39793;BME280;26080;42.264;24.536;2023-08-06T04:52:05;97861.44;;;24.30;100.00
39793;BME280;26080;42.264;24.536;2023-08-06T04:54:31;97864.16;;;24.37;100.00
39793;BME280;26080;42.264;24.536;2023-08-06T04:56:57;97862.72;;;24.34;100.00
39793;BME280;26080;42.264;24.536;2023-08-06T04:59:22;97861.56;;;24.43;100.00
39793;BME280;26080;42.264;24.536;2023-08-06T05:01:48;97850.75;;;24.30;100.00
39793;BME280;26080;42.264;24.536;2023-08-06T05:04:13;97848.44;;;24.27;100.00
39793;BME280;26080;42.264;24.536;2023-08-06T05:06:38;97842.72;;;24.30;100.00
39793;BME280;26080;42.264;24.536;2023-08-06T05:09:04;97828.69;;;24.28;100.00
39793;BME280;26080;42.264;24.536;2023-08-06T05:11:31;97847.38;;;24.49;100.00
39793;BME280;26080;42.264;24.536;2023-08-06T05:13:56;97837.00;;;24.68;100.00
39793;BME280;26080;42.264;24.536;2023-08-06T05:16:23;97826.38;;;24.81;100.00
39793;BME280;26080;42.264;24.536;2023-08-06T05:18:48;97835.03;;;24.83;100.00
39793;BME280;26080;42.264;24.536;2023-08-06T05:21:14;97857.22;;;24.77;100.00
39793;BME280;26080;42.264;24.536;2023-08-06T05:23:41;97857.13;;;24.64;100.00
39793;BME280;26080;42.264;24.536;2023-08-06T05:26:07;97863.78;;;24.68;100.00
39793;BME280;26080;42.264;24.536;2023-08-06T05:28:32;97851.44;;;24.73;100.00
39793;BME280;26080;42.264;24.536;2023-08-06T05:30:58;97846.44;;;24.64;100.00
39793;BME280;26080;42.264;24.536;2023-08-06T05:33:23;97837.78;;;24.62;100.00
39793;BME280;26080;42.264;24.536;2023-08-06T05:35:49;97816.28;;;24.48;100.00
39793;BME280;26080;42.264;24.536;2023-08-06T05:38:16;97818.81;;;24.57;100.00
39793;BME280;26080;42.264;24.536;2023-08-06T05:40:42;97826.66;;;24.65;100.00
39793;BME280;26080;42.264;24.536;2023-08-06T05:43:08;97839.41;;;24.56;100.00
39793;BME280;26080;42.264;24.536;2023-08-06T05:45:33;97801.16;;;24.34;100.00
39793;BME280;26080;42.264;24.536;2023-08-06T05:47:59;97828.94;;;24.33;100.00
39793;BME280;26080;42.264;24.536;2023-08-06T05:50:24;97825.66;;;24.31;100.00
39793;BME280;26080;42.264;24.536;2023-08-06T05:52:50;97821.03;;;24.25;100.00
39793;BME280;26080;42.264;24.536;2023-08-06T06:08:44;97817.72;;;24.44;100.00
39793;BME280;26080;42.264;24.536;2023-08-06T06:11:10;97817.09;;;24.42;100.00
39793;BME280;26080;42.264;24.536;2023-08-06T06:13:35;97822.88;;;24.46;100.00
39793;BME280;26080;42.264;24.536;2023-08-06T06:16:01;97824.50;;;24.47;100.00
39793;BME280;26080;42.264;24.536;2023-08-06T06:18:26;97820.41;;;24.51;100.00
39793;BME280;26080;42.264;24.536;2023-08-06T06:20:51;97818.81;;;24.57;100.00
39793;BME280;26080;42.264;24.536;2023-08-06T06:23:17;97822.34;;;24.64;100.00
39793;BME280;26080;42.264;24.536;2023-08-06T06:25:43;97828.97;;;24.68;100.00
39793;BME280;26080;42.264;24.536;2023-08-06T06:28:09;97821.72;;;24.62;100.00
39793;BME280;26080;42.264;24.536;2023-08-06T06:30:34;97826.66;;;24.65;100.00
39793;BME280;26080;42.264;24.536;2023-08-06T06:33:00;97843.94;;;24.62;100.00
39793;BME280;26080;42.264;24.536;2023-08-06T06:35:25;97849.72;;;24.59;100.00
39793;BME280;26080;42.264;24.536;2023-08-06T06:37:51;97845.97;;;24.54;100.00
39793;BME280;26080;42.264;24.536;2023-08-06T06:40:16;97851.78;;;24.64;100.00
39793;BME280;26080;42.264;24.536;2023-08-06T06:42:42;97860.06;;;24.69;100.00
39793;BME280;26080;42.264;24.536;2023-08-06T06:45:08;97858.72;;;24.86;100.00
39793;BME280;26080;42.264;24.536;2023-08-06T06:47:34;97845.53;;;24.91;100.00
39793;BME280;26080;42.264;24.536;2023-08-06T06:49:59;97852.94;;;25.24;100.00
39793;BME280;26080;42.264;24.536;2023-08-06T06:52:25;97854.66;;;25.38;100.00
39793;BME280;26080;42.264;24.536;2023-08-06T06:54:50;97838.13;;;25.28;100.00
39793;BME280;26080;42.264;24.536;2023-08-06T06:57:16;97837.72;;;25.31;100.00
39793;BME280;26080;42.264;24.536;2023-08-06T06:59:41;97848.47;;;25.44;100.00
39793;BME280;26080;42.264;24.536;2023-08-06T07:02:07;97836.94;;;25.57;100.00
39793;BME280;26080;42.264;24.536;2023-08-06T07:04:32;97834.91;;;25.65;100.00
39793;BME280;26080;42.264;24.536;2023-08-06T07:06:58;97863.00;;;25.83;100.00
39793;BME280;26080;42.264;24.536;2023-08-06T07:09:24;97849.59;;;25.83;100.00
39793;BME280;26080;42.264;24.536;2023-08-06T07:11:50;97847.34;;;25.99;100.00
39793;BME280;26080;42.264;24.536;2023-08-06T07:14:15;97861.59;;;26.13;100.00
39793;BME280;26080;42.264;24.536;2023-08-06T07:16:41;97854.78;;;26.57;100.00
39793;BME280;26080;42.264;24.536;2023-08-06T07:19:06;97862.53;;;27.05;100.00
39793;BME280;26080;42.264;24.536;2023-08-06T07:21:31;97868.28;;;27.15;100.00
39793;BME280;26080;42.264;24.536;2023-08-06T07:23:57;97874.50;;;27.09;100.00
39793;BME280;26080;42.264;24.536;2023-08-06T07:26:25;97884.00;;;26.98;100.00
39793;BME280;26080;42.264;24.536;2023-08-06T07:28:50;97894.34;;;27.08;100.00
39793;BME280;26080;42.264;24.536;2023-08-06T07:31:15;97879.31;;;26.80;100.00
39793;BME280;26080;42.264;24.536;2023-08-06T07:33:41;97891.53;;;26.63;100.00
39793;BME280;26080;42.264;24.536;2023-08-06T07:36:11;97896.91;;;26.50;100.00
39793;BME280;26080;42.264;24.536;2023-08-06T07:38:37;97877.28;;;26.16;100.00
39793;BME280;26080;42.264;24.536;2023-08-06T07:41:03;97887.78;;;25.98;100.00
39793;BME280;26080;42.264;24.536;2023-08-06T07:43:28;97888.63;;;25.92;100.00
39793;BME280;26080;42.264;24.536;2023-08-06T07:45:53;97887.56;;;25.86;100.00
39793;BME280;26080;42.264;24.536;2023-08-06T07:48:19;97872.00;;;25.62;100.00
39793;BME280;26080;42.264;24.536;2023-08-06T07:50:44;97882.31;;;25.58;100.00
39793;BME280;26080;42.264;24.536;2023-08-06T07:53:15;97874.81;;;25.34;100.00
39793;BME280;26080;42.264;24.536;2023-08-06T07:55:41;97883.88;;;25.33;100.00
39793;BME280;26080;42.264;24.536;2023-08-06T07:58:06;97869.25;;;24.94;100.00
39793;BME280;26080;42.264;24.536;2023-08-06T08:00:31;97866.16;;;24.91;100.00
39793;BME280;26080;42.264;24.536;2023-08-06T08:02:57;97875.13;;;24.76;100.00
39793;BME280;26080;42.264;24.536;2023-08-06T08:05:22;97882.53;;;24.74;100.00
39793;BME280;26080;42.264;24.536;2023-08-06T08:07:48;97887.00;;;24.95;100.00
39793;BME280;26080;42.264;24.536;2023-08-06T08:10:13;97891.03;;;24.85;100.00
39793;BME280;26080;42.264;24.536;2023-08-06T08:12:39;97887.34;;;24.86;100.00
39793;BME280;26080;42.264;24.536;2023-08-06T08:15:04;97894.25;;;25.01;100.00
39793;BME280;26080;42.264;24.536;2023-08-06T08:17:30;97893.53;;;24.86;100.00
39793;BME280;26080;42.264;24.536;2023-08-06T08:19:55;97878.53;;;24.57;100.00
39793;BME280;26080;42.264;24.536;2023-08-06T08:22:21;97880.66;;;24.68;100.00
39793;BME280;26080;42.264;24.536;2023-08-06T08:24:46;97877.84;;;24.83;100.00
39793;BME280;26080;42.264;24.536;2023-08-06T08:27:12;97875.56;;;25.15;100.00
39793;BME280;26080;42.264;24.536;2023-08-06T08:29:37;97866.00;;;25.47;100.00
39793;BME280;26080;42.264;24.536;2023-08-06T08:32:03;97860.88;;;25.52;100.00
39793;BME280;26080;42.264;24.536;2023-08-06T08:34:29;97867.16;;;25.79;100.00
39793;BME280;26080;42.264;24.536;2023-08-06T08:36:54;97866.75;;;26.02;100.00
39793;BME280;26080;42.264;24.536;2023-08-06T08:39:20;97869.44;;;26.21;100.00
39793;BME280;26080;42.264;24.536;2023-08-06T08:41:45;97851.47;;;26.62;100.00
39793;BME280;26080;42.264;24.536;2023-08-06T08:44:12;97859.72;;;26.73;100.00
39793;BME280;26080;42.264;24.536;2023-08-06T08:46:40;97855.78;;;26.69;100.00
39793;BME280;26080;42.264;24.536;2023-08-06T08:49:05;97831.19;;;26.72;100.00
39793;BME280;26080;42.264;24.536;2023-08-06T08:51:33;97840.19;;;27.11;100.00
39793;BME280;26080;42.264;24.536;2023-08-06T08:53:58;97825.91;;;27.17;92.23
39793;BME280;26080;42.264;24.536;2023-08-06T08:56:24;97785.44;;;26.99;91.67
39793;BME280;26080;42.264;24.536;2023-08-06T08:58:50;97825.16;;;27.41;88.51
39793;BME280;26080;42.264;24.536;2023-08-06T09:01:18;97797.84;;;27.44;87.32
39793;BME280;26080;42.264;24.536;2023-08-06T09:03:44;97817.19;;;27.60;87.52
39793;BME280;26080;42.264;24.536;2023-08-06T09:06:12;97815.19;;;27.49;85.47
39793;BME280;26080;42.264;24.536;2023-08-06T09:09:01;97822.34;;;27.61;86.54
39793;BME280;26080;42.264;24.536;2023-08-06T09:11:37;97830.31;;;27.81;85.30
39793;BME280;26080;42.264;24.536;2023-08-06T09:14:06;97816.69;;;27.76;86.57
39793;BME280;26080;42.264;24.536;2023-08-06T09:16:37;97838.56;;;27.86;84.78
39793;BME280;26080;42.264;24.536;2023-08-06T09:19:12;97839.81;;;27.84;83.81
39793;BME280;26080;42.264;24.536;2023-08-06T09:21:39;97847.50;;;28.05;85.52
39793;BME280;26080;42.264;24.536;2023-08-06T09:24:11;97841.75;;;28.01;85.53
39793;BME280;26080;42.264;24.536;2023-08-06T09:26:40;97818.91;;;27.86;81.29
39793;BME280;26080;42.264;24.536;2023-08-06T09:29:07;97835.88;;;27.86;82.92
39793;BME280;26080;42.264;24.536;2023-08-06T09:31:47;97820.66;;;27.98;85.38
39793;BME280;26080;42.264;24.536;2023-08-06T09:34:17;97830.81;;;28.21;84.18
39793;BME280;26080;42.264;24.536;2023-08-06T09:36:46;97836.78;;;28.30;81.84
39793;BME280;26080;42.264;24.536;2023-08-06T09:39:16;97837.72;;;28.42;78.41
39793;BME280;26080;42.264;24.536;2023-08-06T09:41:42;97834.78;;;28.44;78.89
39793;BME280;26080;42.264;24.536;2023-08-06T09:44:19;97839.66;;;28.53;88.48
39793;BME280;26080;42.264;24.536;2023-08-06T09:46:51;97827.72;;;28.68;83.23
39793;BME280;26080;42.264;24.536;2023-08-06T09:49:24;97793.91;;;28.53;80.23
39793;BME280;26080;42.264;24.536;2023-08-06T09:51:54;97806.75;;;28.70;78.68
39793;BME280;26080;42.264;24.536;2023-08-06T09:54:24;97805.44;;;28.79;77.03
39793;BME280;26080;42.264;24.536;2023-08-06T09:56:49;97810.41;;;28.75;76.30
39793;BME280;26080;42.264;24.536;2023-08-06T09:59:16;97810.47;;;28.50;73.58
39793;BME280;26080;42.264;24.536;2023-08-06T10:01:43;97805.44;;;28.79;77.40
39793;BME280;26080;42.264;24.536;2023-08-06T10:04:09;97805.72;;;29.07;74.58
39793;BME280;26080;42.264;24.536;2023-08-06T10:06:37;97815.22;;;29.10;72.97
39793;BME280;26080;42.264;24.536;2023-08-06T10:09:05;97798.13;;;29.16;68.92
39793;BME280;26080;42.264;24.536;2023-08-06T10:11:31;97803.56;;;28.98;69.32
39793;BME280;26080;42.264;24.536;2023-08-06T10:14:26;97800.34;;;29.07;69.94
39793;BME280;26080;42.264;24.536;2023-08-06T10:16:53;97797.00;;;29.24;64.97
39793;BME280;26080;42.264;24.536;2023-08-06T10:19:20;97783.53;;;29.24;64.72
39793;BME280;26080;42.264;24.536;2023-08-06T10:27:22;97776.97;;;29.19;61.16
39793;BME280;26080;42.264;24.536;2023-08-06T10:29:48;97773.97;;;29.09;59.77
39793;BME280;26080;42.264;24.536;2023-08-06T10:32:17;97779.09;;;28.99;61.32
39793;BME280;26080;42.264;24.536;2023-08-06T10:34:56;97781.59;;;29.12;60.48
39793;BME280;26080;42.264;24.536;2023-08-06T10:37:23;97779.66;;;29.19;61.63
39793;BME280;26080;42.264;24.536;2023-08-06T10:39:52;97788.00;;;29.30;60.96
39793;BME280;26080;42.264;24.536;2023-08-06T10:42:27;97790.63;;;29.36;58.30
39793;BME280;26080;42.264;24.536;2023-08-06T10:45:14;97792.38;;;29.42;58.21
39793;BME280;26080;42.264;24.536;2023-08-06T10:47:40;97778.66;;;29.44;59.91
39793;BME280;26080;42.264;24.536;2023-08-06T10:50:07;97779.56;;;29.56;56.32
39793;BME280;26080;42.264;24.536;2023-08-06T10:52:34;97793.31;;;29.66;58.47
39793;BME280;26080;42.264;24.536;2023-08-06T10:54:59;97792.38;;;29.42;56.75
39793;BME280;26080;42.264;24.536;2023-08-06T10:57:25;97782.41;;;29.43;56.39
39793;BME280;26080;42.264;24.536;2023-08-06T10:59:51;97790.13;;;29.58;57.27
39793;BME280;26080;42.264;24.536;2023-08-06T11:02:17;97782.19;;;29.44;54.88
39793;BME280;26080;42.264;24.536;2023-08-06T11:04:42;97783.47;;;29.42;54.58
39793;BME280;26080;42.264;24.536;2023-08-06T11:07:08;97789.88;;;29.29;50.70
39793;BME280;26080;42.264;24.536;2023-08-06T11:09:34;97769.41;;;29.10;52.95
39793;BME280;26080;42.264;24.536;2023-08-06T11:12:00;97780.84;;;29.24;51.94
39793;BME280;26080;42.264;24.536;2023-08-06T11:14:25;97805.75;;;29.19;52.33
39793;BME280;26080;42.264;24.536;2023-08-06T11:16:51;97802.53;;;29.29;52.86
39793;BME280;26080;42.264;24.536;2023-08-06T11:19:16;97798.59;;;29.43;49.67
39793;BME280;26080;42.264;24.536;2023-08-06T11:21:43;97806.44;;;29.63;50.79
39793;BME280;26080;42.264;24.536;2023-08-06T11:24:12;97792.31;;;29.91;48.83
39793;BME280;26080;42.264;24.536;2023-08-06T11:26:37;97795.41;;;30.06;48.82
39793;BME280;26080;42.264;24.536;2023-08-06T11:29:05;97809.56;;;30.01;49.23
39793;BME280;26080;42.264;24.536;2023-08-06T11:31:30;97816.69;;;29.84;48.57
39793;BME280;26080;42.264;24.536;2023-08-06T11:33:56;97811.59;;;29.64;49.07
39793;BME280;26080;42.264;24.536;2023-08-06T11:36:31;97802.78;;;29.57;49.63
39793;BME280;26080;42.264;24.536;2023-08-06T11:38:59;97810.75;;;29.52;49.28
39793;BME280;26080;42.264;24.536;2023-08-06T11:41:24;97815.13;;;29.65;49.64
39793;BME280;26080;42.264;24.536;2023-08-06T11:43:50;97793.44;;;29.71;51.03
39793;BME280;26080;42.264;24.536;2023-08-06T11:46:15;97803.56;;;29.99;50.04
39793;BME280;26080;42.264;24.536;2023-08-06T11:48:54;97815.66;;;29.97;48.92
39793;BME280;26080;42.264;24.536;2023-08-06T11:51:24;97794.63;;;29.75;48.72
39793;BME280;26080;42.264;24.536;2023-08-06T11:53:55;97789.72;;;29.96;49.80
39793;BME280;26080;42.264;24.536;2023-08-06T11:56:21;97812.44;;;30.30;48.99
39793;BME280;26080;42.264;24.536;2023-08-06T11:58:47;97808.53;;;30.14;49.85
39793;BME280;26080;42.264;24.536;2023-08-06T12:01:13;97820.94;;;29.92;49.65
39793;BME280;26080;42.264;24.536;2023-08-06T12:03:39;97791.81;;;29.82;49.37
39793;BME280;26080;42.264;24.536;2023-08-06T12:06:05;97788.47;;;30.10;49.46
39793;BME280;26080;42.264;24.536;2023-08-06T12:08:30;97814.53;;;30.28;47.37
39793;BME280;26080;42.264;24.536;2023-08-06T12:10:56;97808.44;;;30.21;47.85
39793;BME280;26080;42.264;24.536;2023-08-06T12:13:21;97814.31;;;30.41;48.16
39793;BME280;26080;42.264;24.536;2023-08-06T12:15:47;97814.91;;;30.43;49.28
39793;BME280;26080;42.264;24.536;2023-08-06T12:18:12;97808.09;;;30.41;45.76
39793;BME280;26080;42.264;24.536;2023-08-06T12:20:38;97811.25;;;30.37;45.55
39793;BME280;26080;42.264;24.536;2023-08-06T12:23:04;97809.50;;;30.31;45.21
39793;BME280;26080;42.264;24.536;2023-08-06T12:25:29;97814.44;;;30.34;45.57
39793;BME280;26080;42.264;24.536;2023-08-06T12:27:55;97814.19;;;30.36;43.37
39793;BME280;26080;42.264;24.536;2023-08-06T12:30:20;97815.34;;;30.28;42.78
39793;BME280;26080;42.264;24.536;2023-08-06T12:32:46;97822.88;;;30.38;44.84
39793;BME280;26080;42.264;24.536;2023-08-06T12:35:11;97814.44;;;30.58;43.37
39793;BME280;26080;42.264;24.536;2023-08-06T12:37:37;97812.41;;;30.88;43.26
39793;BME280;26080;42.264;24.536;2023-08-06T12:40:04;97795.34;;;31.00;43.42
39793;BME280;26080;42.264;24.536;2023-08-06T12:42:29;97806.22;;;31.16;41.70
39793;BME280;26080;42.264;24.536;2023-08-06T12:44:55;97795.53;;;31.21;40.75
39793;BME280;26080;42.264;24.536;2023-08-06T12:47:21;97784.47;;;31.23;41.61
39793;BME280;26080;42.264;24.536;2023-08-06T12:49:46;97802.81;;;31.21;41.60
39793;BME280;26080;42.264;24.536;2023-08-06T12:52:13;97806.00;;;31.06;40.58
39793;BME280;26080;42.264;24.536;2023-08-06T12:54:40;97807.94;;;30.82;40.59
39793;BME280;26080;42.264;24.536;2023-08-06T12:57:06;97812.31;;;30.60;40.93
39793;BME280;26080;42.264;24.536;2023-08-06T12:59:32;97815.59;;;30.62;39.78
39793;BME280;26080;42.264;24.536;2023-08-06T13:02:02;97825.47;;;30.45;39.73
39793;BME280;26080;42.264;24.536;2023-08-06T13:04:27;97809.75;;;30.65;39.38
39793;BME280;26080;42.264;24.536;2023-08-06T13:06:53;97778.69;;;30.79;39.92
39793;BME280;26080;42.264;24.536;2023-08-06T13:09:18;97815.28;;;31.10;38.31